Elvis — WDF2023 — position and weather

sailwx.info

Track history (hours):
 
Tides and Currents Weather Stations Pressure Air Temp Water Temp Dewpoint Dewpoint Depression Visibility Wind Speed Wind Dir Waves Ship Positions

Elvis

Owner: HAYDEL MARINE TOWING LLC, FRANKLIN, LA. More information available from US FCC via Universal Licensing System.

Last reported at 2018-Apr-07 13:18 UTC. Time now 2018-Apr-22 16:25 UTC.
Position N 29°23' W 090°44'.
Warning: this ship's position is 15 days out of date.

Length 37 m.

Type: Other ship. MMSI: 300300200.

Date/timePositionNaut miles runAvg speedWind from/ knotsBaromVisibWave heightAir tempDewpointWater temp
2018-Apr-07 13:18N 29°23' W 090°44'1 4.4
2018-Apr-07 13:00N 29°24' W 090°44'2 4.5
2018-Apr-07 12:30N 29°27' W 090°43'2 4.6
2018-Apr-07 12:00N 29°29' W 090°43'2 4.2
2018-Apr-07 11:29N 29°31' W 090°43'2 4.2
2018-Apr-07 11:00N 29°33' W 090°42'1 2.7
2018-Apr-07 10:30N 29°34' W 090°43'2 3.8
2018-Apr-07 09:59N 29°33' W 090°45'0 0.2
2018-Apr-07 09:30N 29°33' W 090°45'0 0.0
2018-Apr-07 09:00N 29°33' W 090°45'1 2.9
2018-Apr-07 08:29N 29°32' W 090°47'2 4.2
2018-Apr-07 08:00N 29°32' W 090°49'  
Track history (hours):
 
Tides and Currents Weather Stations Pressure Air Temp Water Temp Dewpoint Dewpoint Depression Visibility Wind Speed Wind Dir Waves Ship Positions

Elvis

Owner: HAYDEL MARINE TOWING LLC, FRANKLIN, LA. More information available from US FCC via Universal Licensing System.

Last reported at 2018-Apr-07 13:18 UTC. Time now 2018-Apr-22 16:25 UTC.
Position N 29°23' W 090°44'.
Warning: this ship's position is 15 days out of date.

Length 37 m.

Type: Other ship. MMSI: 300300200.

Date/timePositionNaut miles runAvg speedWind from/ knotsBaromVisibWave heightAir tempDewpointWater temp
2018-Apr-07 13:18N 29°23' W 090°44'1 4.4
2018-Apr-07 13:00N 29°24' W 090°44'2 4.5
2018-Apr-07 12:30N 29°27' W 090°43'2 4.6
2018-Apr-07 12:00N 29°29' W 090°43'2 4.2
2018-Apr-07 11:29N 29°31' W 090°43'2 4.2
2018-Apr-07 11:00N 29°33' W 090°42'1 2.7
2018-Apr-07 10:30N 29°34' W 090°43'2 3.8
2018-Apr-07 09:59N 29°33' W 090°45'0 0.2
2018-Apr-07 09:30N 29°33' W 090°45'0 0.0
2018-Apr-07 09:00N 29°33' W 090°45'1 2.9
2018-Apr-07 08:29N 29°32' W 090°47'2 4.2
2018-Apr-07 08:00N 29°32' W 090°49'  

Dump ship's entire track history